Time;durP1;ratioP1;P1;durP2;ratioP2;P2;SDS_P1;SDS_P2;PMS_P1;PMS_P2;Temp;Humidity;BMP_temperature;BMP_pressure;BME280_temperature;BME280_humidity;BME280_pressure;Samples;Min_cycle;Max_cycle;Signal;HPM_P1;HPM_P2
2021/03/29 00:01:47;;;;;;;16.27;8.90;;;7.10;88.70;;;;;;5055843;28;20210;-75
2021/03/29 00:04:14;;;;;;;16.17;8.37;;;7.10;88.90;;;;;;5059986;28;20256;-76
2021/03/29 00:06:42;;;;;;;15.67;8.60;;;7.10;88.90;;;;;;5049387;28;20781;-75
2021/03/29 00:09:09;;;;;;;17.40;8.93;;;7.20;89.10;;;;;;5055414;28;20639;-75
2021/03/29 00:11:38;;;;;;;14.13;8.70;;;7.20;89.10;;;;;;5059679;28;20193;-76
2021/03/29 00:14:06;;;;;;;15.53;8.33;;;7.10;89.10;;;;;;5057857;28;20653;-77
2021/03/29 00:16:34;;;;;;;20.77;8.53;;;7.10;89.20;;;;;;5061002;28;20217;-76
2021/03/29 00:19:01;;;;;;;14.53;8.57;;;7.20;89.20;;;;;;5056123;28;20238;-76
2021/03/29 00:21:28;;;;;;;17.10;9.00;;;7.20;89.30;;;;;;5062511;28;20578;-77
2021/03/29 00:23:55;;;;;;;14.37;8.47;;;7.20;89.20;;;;;;5061791;28;20213;-77
2021/03/29 00:26:21;;;;;;;12.83;8.33;;;7.20;89.10;;;;;;5063097;28;20643;-77
2021/03/29 00:28:49;;;;;;;14.27;8.07;;;7.20;89.10;;;;;;5059756;28;20293;-77
2021/03/29 00:31:16;;;;;;;16.47;8.37;;;7.20;89.20;;;;;;5056357;28;20294;-76
2021/03/29 00:33:44;;;;;;;15.00;8.73;;;7.20;89.40;;;;;;5059930;28;20202;-75
2021/03/29 00:36:12;;;;;;;14.77;8.43;;;7.20;89.20;;;;;;5060975;28;20235;-76
2021/03/29 00:38:40;;;;;;;14.33;7.53;;;7.20;89.20;;;;;;5057807;28;20259;-76
2021/03/29 00:41:08;;;;;;;14.00;8.53;;;7.20;88.80;;;;;;5060113;28;20338;-76
2021/03/29 00:43:39;;;;;;;15.90;7.93;;;7.20;88.60;;;;;;5055301;28;20227;-75
2021/03/29 00:46:08;;;;;;;15.20;8.37;;;7.20;88.70;;;;;;5061028;28;20288;-76
2021/03/29 00:48:36;;;;;;;16.80;8.30;;;7.20;88.60;;;;;;5054268;28;20234;-78
2021/03/29 00:51:10;;;;;;;14.80;8.07;;;7.20;88.40;;;;;;5055459;28;20205;-77
2021/03/29 00:53:37;;;;;;;15.87;8.13;;;7.20;88.30;;;;;;5055896;28;20220;-77
2021/03/29 00:56:05;;;;;;;15.40;8.20;;;7.20;88.40;;;;;;5061059;28;20296;-76
2021/03/29 00:58:32;;;;;;;14.20;7.47;;;7.20;88.50;;;;;;5059525;28;20320;-76
2021/03/29 01:01:03;;;;;;;14.90;8.50;;;7.20;88.60;;;;;;5057201;28;20286;-75
2021/03/29 01:03:32;;;;;;;16.57;8.73;;;7.20;88.60;;;;;;5057807;28;20218;-76
2021/03/29 01:06:00;;;;;;;13.00;7.70;;;7.20;88.70;;;;;;5058447;28;20257;-75
2021/03/29 01:08:27;;;;;;;16.37;7.90;;;7.20;88.90;;;;;;5055901;28;20213;-75
2021/03/29 01:10:56;;;;;;;15.60;8.40;;;7.20;88.90;;;;;;5055715;28;20763;-75
2021/03/29 01:13:24;;;;;;;14.20;8.37;;;7.30;89.10;;;;;;5049114;28;20261;-74
2021/03/29 01:15:55;;;;;;;15.63;8.80;;;7.20;89.10;;;;;;5053140;28;20297;-74
2021/03/29 01:18:25;;;;;;;13.97;7.67;;;7.20;89.30;;;;;;5057078;28;20198;-75
2021/03/29 01:21:03;;;;;;;15.07;8.70;;;7.20;89.40;;;;;;5057882;28;20246;-75
2021/03/29 01:23:31;;;;;;;14.50;8.43;;;7.20;89.70;;;;;;5058131;28;20306;-74
2021/03/29 01:26:06;;;;;;;13.43;8.23;;;7.20;89.70;;;;;;5050791;28;20265;-74
2021/03/29 01:28:34;;;;;;;16.77;8.90;;;7.10;90.00;;;;;;5058998;28;20200;-75
2021/03/29 01:31:02;;;;;;;17.13;9.30;;;7.10;90.10;;;;;;5058113;28;20206;-76
2021/03/29 01:33:29;;;;;;;15.13;8.43;;;7.10;90.20;;;;;;5052854;28;20214;-75
2021/03/29 01:35:59;;;;;;;16.07;8.73;;;7.10;90.30;;;;;;5053862;28;20209;-76
2021/03/29 01:38:28;;;;;;;17.97;8.93;;;7.00;90.30;;;;;;5052295;28;20274;-74
2021/03/29 01:40:56;;;;;;;19.27;8.90;;;7.00;90.40;;;;;;5054583;28;20296;-75
2021/03/29 01:43:24;;;;;;;16.20;8.93;;;7.10;90.60;;;;;;5060508;28;20592;-75
2021/03/29 01:45:53;;;;;;;15.43;8.53;;;7.10;90.60;;;;;;5054736;28;20293;-75
2021/03/29 01:48:21;;;;;;;16.33;7.73;;;7.00;90.60;;;;;;5055344;28;20280;-76
2021/03/29 01:50:48;;;;;;;14.80;7.93;;;7.00;90.70;;;;;;5061045;28;20282;-77
2021/03/29 01:53:15;;;;;;;14.83;8.17;;;7.00;90.80;;;;;;5054889;28;20220;-75
2021/03/29 01:55:42;;;;;;;12.13;7.67;;;7.00;90.70;;;;;;5052685;28;20661;-75
2021/03/29 01:58:09;;;;;;;15.47;8.73;;;7.00;90.90;;;;;;5055619;28;20198;-74
2021/03/29 02:00:39;;;;;;;15.23;8.93;;;7.00;90.80;;;;;;5052697;28;20241;-74
2021/03/29 02:03:11;;;;;;;14.63;8.17;;;7.00;90.80;;;;;;5058726;28;20240;-75
2021/03/29 02:05:40;;;;;;;13.80;7.93;;;7.00;90.70;;;;;;5056352;28;20281;-78
2021/03/29 02:08:07;;;;;;;16.13;8.13;;;7.00;90.70;;;;;;5060831;28;20228;-77
2021/03/29 02:10:36;;;;;;;17.03;8.47;;;7.10;90.70;;;;;;5059651;28;20237;-77
2021/03/29 02:13:06;;;;;;;19.37;8.90;;;7.00;90.70;;;;;;5059650;28;20233;-77
2021/03/29 02:15:33;;;;;;;12.13;7.87;;;7.10;90.80;;;;;;5059485;28;20209;-77
2021/03/29 02:18:02;;;;;;;12.33;8.23;;;7.10;90.90;;;;;;5062544;28;20618;-77
2021/03/29 02:20:32;;;;;;;14.87;7.90;;;7.10;90.70;;;;;;5058639;28;20209;-77
2021/03/29 02:23:00;;;;;;;15.57;7.70;;;7.10;90.90;;;;;;5056475;28;20201;-76
2021/03/29 02:25:29;;;;;;;16.20;8.27;;;7.10;90.80;;;;;;5055479;28;20272;-75
2021/03/29 02:27:57;;;;;;;16.43;8.43;;;7.10;90.80;;;;;;5058141;28;20300;-77
2021/03/29 02:30:28;;;;;;;15.30;8.03;;;7.10;90.90;;;;;;5060090;28;20300;-77
2021/03/29 02:32:55;;;;;;;15.37;8.57;;;7.10;91.00;;;;;;5058818;28;20202;-77
2021/03/29 02:35:24;;;;;;;17.07;8.77;;;7.10;90.90;;;;;;5058605;28;20224;-77
2021/03/29 02:37:54;;;;;;;15.00;8.43;;;7.10;91.00;;;;;;5056615;28;20198;-77
2021/03/29 02:40:23;;;;;;;13.63;8.60;;;7.20;91.10;;;;;;5057385;28;20240;-76
2021/03/29 02:42:57;;;;;;;16.17;8.43;;;7.20;91.10;;;;;;5057411;28;20659;-74
2021/03/29 02:45:25;;;;;;;16.07;9.17;;;7.10;91.10;;;;;;5052686;28;20571;-74
2021/03/29 02:47:55;;;;;;;14.20;8.10;;;7.10;91.10;;;;;;5054266;28;20214;-75
2021/03/29 02:50:24;;;;;;;15.90;8.27;;;7.10;91.20;;;;;;5056241;28;20682;-74
2021/03/29 02:52:54;;;;;;;16.17;9.07;;;7.10;91.20;;;;;;5055896;28;20217;-75
2021/03/29 02:55:22;;;;;;;15.80;8.30;;;7.10;91.60;;;;;;5060923;28;20286;-75
2021/03/29 02:57:52;;;;;;;19.70;8.53;;;7.10;91.20;;;;;;5056511;28;20203;-74
2021/03/29 03:00:20;;;;;;;17.60;8.63;;;7.00;91.20;;;;;;5064281;28;20285;-75
2021/03/29 03:02:47;;;;;;;16.00;9.57;;;7.10;91.20;;;;;;5065170;28;20244;-75
2021/03/29 03:05:15;;;;;;;15.57;8.27;;;7.10;91.20;;;;;;5055962;28;20230;-76
2021/03/29 03:07:42;;;;;;;18.77;9.27;;;7.00;91.20;;;;;;5060936;28;20213;-73
2021/03/29 03:10:12;;;;;;;19.27;8.73;;;7.10;91.30;;;;;;5059090;28;20252;-75
2021/03/29 03:12:41;;;;;;;15.13;8.23;;;7.10;91.30;;;;;;5044580;28;20201;-76
2021/03/29 03:15:11;;;;;;;15.13;8.00;;;7.00;91.20;;;;;;5052977;28;20280;-76
2021/03/29 03:17:37;;;;;;;14.50;8.13;;;7.10;91.50;;;;;;5060455;28;20233;-75
2021/03/29 03:20:07;;;;;;;16.50;8.73;;;7.10;91.60;;;;;;5050427;28;20210;-74
2021/03/29 03:22:35;;;;;;;15.20;8.50;;;7.10;91.70;;;;;;5059652;28;20331;-75
2021/03/29 03:25:13;;;;;;;15.47;8.73;;;7.00;91.70;;;;;;5058627;28;20235;-74
2021/03/29 03:27:44;;;;;;;16.53;8.63;;;7.10;91.70;;;;;;5053864;28;20570;-75
2021/03/29 03:30:17;;;;;;;16.77;9.23;;;7.10;91.70;;;;;;5057367;28;20212;-74
2021/03/29 03:32:43;;;;;;;16.40;8.17;;;7.10;91.80;;;;;;5055427;28;20226;-76
2021/03/29 03:35:12;;;;;;;17.57;8.50;;;7.10;91.90;;;;;;5054024;28;20288;-77
2021/03/29 03:37:42;;;;;;;16.00;8.50;;;7.00;92.10;;;;;;5055546;28;20241;-76
2021/03/29 03:40:10;;;;;;;16.83;8.37;;;7.10;92.40;;;;;;5059468;28;20225;-75
2021/03/29 03:42:37;;;;;;;16.03;8.83;;;7.10;92.70;;;;;;5062173;28;20255;-76
2021/03/29 03:45:08;;;;;;;16.03;8.13;;;7.10;92.80;;;;;;5057570;28;20225;-75
2021/03/29 03:47:37;;;;;;;16.33;8.80;;;7.10;93.00;;;;;;5060628;28;20201;-75
2021/03/29 03:50:06;;;;;;;13.93;8.33;;;7.10;93.20;;;;;;5057758;28;20230;-75
2021/03/29 03:52:35;;;;;;;13.20;8.47;;;7.10;93.40;;;;;;5061652;28;20239;-76
2021/03/29 03:55:01;;;;;;;13.50;8.10;;;7.10;93.40;;;;;;5061100;28;20202;-75
2021/03/29 03:57:28;;;;;;;15.63;8.27;;;7.10;93.50;;;;;;5057886;28;20202;-76
2021/03/29 03:59:56;;;;;;;14.70;8.17;;;7.10;93.50;;;;;;5053601;28;20209;-75
2021/03/29 04:02:24;;;;;;;18.27;9.03;;;7.10;93.70;;;;;;5055947;28;20224;-76
2021/03/29 04:04:50;;;;;;;15.23;8.97;;;7.20;93.80;;;;;;5058808;28;20236;-74
2021/03/29 04:07:16;;;;;;;16.07;8.87;;;7.00;93.90;;;;;;5053308;28;20202;-77
2021/03/29 04:09:45;;;;;;;14.57;8.53;;;7.10;94.20;;;;;;5056779;28;20295;-75
2021/03/29 04:12:12;;;;;;;15.53;8.53;;;7.10;94.50;;;;;;5059037;28;20202;-73
2021/03/29 04:14:40;;;;;;;16.93;9.07;;;7.10;94.80;;;;;;5055959;28;20218;-75
2021/03/29 04:17:08;;;;;;;16.17;8.27;;;7.10;95.10;;;;;;5058864;28;20215;-74
2021/03/29 04:19:37;;;;;;;15.37;8.90;;;7.00;95.70;;;;;;5052894;28;20206;-73
2021/03/29 04:22:05;;;;;;;17.37;9.53;;;6.90;96.40;;;;;;5058427;28;20208;-74
2021/03/29 04:24:32;;;;;;;15.70;9.43;;;7.00;97.20;;;;;;5057476;28;20242;-75
2021/03/29 04:26:58;;;;;;;20.43;8.63;;;6.90;97.70;;;;;;5053111;28;20733;-74
2021/03/29 04:29:26;;;;;;;16.10;8.90;;;6.90;98.50;;;;;;5060836;28;20229;-75
2021/03/29 04:31:55;;;;;;;16.43;8.40;;;7.00;99.10;;;;;;5059715;28;20219;-74
2021/03/29 04:34:21;;;;;;;16.73;8.83;;;6.90;99.70;;;;;;5056459;28;20697;-74
2021/03/29 04:36:48;;;;;;;15.07;8.67;;;6.80;99.90;;;;;;5051503;28;20317;-73
2021/03/29 04:39:15;;;;;;;15.67;9.17;;;6.80;99.90;;;;;;5055038;28;20225;-73
2021/03/29 04:41:41;;;;;;;15.83;8.93;;;6.80;99.90;;;;;;5054144;28;20199;-74
2021/03/29 04:44:08;;;;;;;13.97;8.10;;;6.80;99.90;;;;;;5054196;28;20674;-74
2021/03/29 04:46:36;;;;;;;16.00;9.20;;;6.80;99.90;;;;;;5059668;28;20197;-74
2021/03/29 04:49:03;;;;;;;18.53;9.67;;;6.80;99.90;;;;;;5051295;28;20215;-73
2021/03/29 04:51:30;;;;;;;16.67;9.87;;;6.80;99.90;;;;;;5059175;28;20213;-74
2021/03/29 04:53:57;;;;;;;16.53;9.60;;;6.80;99.90;;;;;;5058414;28;20236;-75
2021/03/29 04:56:23;;;;;;;15.30;9.13;;;6.80;99.90;;;;;;5054577;28;20252;-74
2021/03/29 04:58:50;;;;;;;19.03;9.63;;;6.80;99.90;;;;;;5054305;28;20655;-74
2021/03/29 05:01:16;;;;;;;15.87;9.97;;;6.80;99.90;;;;;;5054667;28;20208;-74
2021/03/29 05:03:43;;;;;;;17.77;9.80;;;6.70;99.90;;;;;;5054433;28;20300;-73
2021/03/29 05:06:10;;;;;;;17.77;9.23;;;6.80;99.90;;;;;;5053556;28;20205;-74
2021/03/29 05:08:36;;;;;;;16.93;9.73;;;6.70;99.90;;;;;;5053468;28;20202;-72
2021/03/29 05:11:04;;;;;;;15.23;8.50;;;6.80;99.90;;;;;;5051508;28;20245;-72
2021/03/29 05:13:30;;;;;;;14.57;8.93;;;6.80;99.90;;;;;;5051834;28;20317;-71
2021/03/29 05:15:56;;;;;;;15.57;9.30;;;6.80;99.90;;;;;;5059243;28;20309;-74
2021/03/29 05:18:23;;;;;;;15.13;9.20;;;6.90;99.90;;;;;;5057023;28;20210;-74
2021/03/29 05:20:51;;;;;;;17.50;9.37;;;6.90;99.90;;;;;;5051580;28;20206;-74
2021/03/29 05:23:17;;;;;;;18.93;9.90;;;7.00;99.90;;;;;;5056259;28;20210;-75
2021/03/29 05:25:44;;;;;;;15.97;8.87;;;7.00;99.90;;;;;;5056098;28;20756;-75
2021/03/29 05:28:13;;;;;;;15.93;8.40;;;7.00;99.90;;;;;;5057121;28;20252;-75
2021/03/29 05:30:40;;;;;;;14.73;9.07;;;7.10;99.90;;;;;;5050049;28;20198;-74
2021/03/29 05:33:08;;;;;;;14.97;8.33;;;7.10;99.90;;;;;;5051278;28;20216;-74
2021/03/29 05:35:34;;;;;;;21.27;9.17;;;7.10;99.90;;;;;;5056835;28;20217;-75
2021/03/29 05:38:01;;;;;;;16.60;7.97;;;7.10;99.90;;;;;;5057470;28;20224;-75
2021/03/29 05:40:28;;;;;;;15.77;9.63;;;7.20;99.90;;;;;;5057001;28;20316;-75
2021/03/29 05:42:55;;;;;;;18.53;10.03;;;7.20;99.90;;;;;;5053580;28;20651;-74
2021/03/29 05:45:23;;;;;;;14.87;8.83;;;7.30;99.90;;;;;;5056360;28;20228;-75
2021/03/29 05:47:51;;;;;;;16.10;9.37;;;7.30;99.90;;;;;;5056585;28;20198;-75
2021/03/29 05:50:19;;;;;;;14.20;9.20;;;7.40;99.90;;;;;;5062193;28;20255;-74
2021/03/29 05:52:45;;;;;;;18.20;8.47;;;7.50;99.90;;;;;;5051294;28;20294;-74
2021/03/29 05:55:17;;;;;;;17.93;9.50;;;7.50;99.90;;;;;;5053179;28;20329;-75
2021/03/29 05:58:05;;;;;;;18.10;9.23;;;7.50;99.90;;;;;;5054451;28;20563;-76
2021/03/29 06:00:40;;;;;;;16.20;9.03;;;7.50;99.90;;;;;;5058395;28;20620;-76
2021/03/29 06:03:28;;;;;;;14.53;8.80;;;7.50;99.90;;;;;;5057657;28;20213;-76
2021/03/29 06:05:57;;;;;;;14.00;8.37;;;7.60;99.90;;;;;;5052463;28;20724;-76
2021/03/29 06:08:25;;;;;;;11.97;8.03;;;7.70;99.90;;;;;;5057141;28;20551;-74
2021/03/29 06:10:54;;;;;;;16.47;9.33;;;7.70;99.90;;;;;;5046507;28;20674;-70
2021/03/29 06:13:23;;;;;;;14.57;8.07;;;7.80;99.90;;;;;;5053468;28;21669;-70
2021/03/29 06:16:01;;;;;;;17.87;9.20;;;7.90;99.90;;;;;;5052641;28;20204;-69
2021/03/29 06:18:28;;;;;;;16.40;9.80;;;8.00;99.90;;;;;;5053354;28;20204;-69
2021/03/29 06:20:59;;;;;;;15.57;9.20;;;8.00;99.90;;;;;;5055517;28;20210;-70
2021/03/29 06:23:26;;;;;;;17.20;8.97;;;8.00;99.90;;;;;;5052824;28;20210;-69
2021/03/29 06:26:13;;;;;;;15.53;9.00;;;8.10;99.90;;;;;;5052469;28;20746;-70
2021/03/29 06:28:39;;;;;;;15.07;9.03;;;8.10;99.90;;;;;;5052215;28;20216;-69
2021/03/29 06:31:25;;;;;;;16.27;9.70;;;8.20;99.90;;;;;;5052349;28;20206;-71
2021/03/29 06:33:52;;;;;;;17.10;9.67;;;8.20;99.90;;;;;;5057881;28;20253;-72
2021/03/29 06:36:36;;;;;;;15.37;10.07;;;8.20;99.90;;;;;;5055684;28;20205;-70
2021/03/29 06:39:13;;;;;;;13.73;8.93;;;8.30;99.90;;;;;;5058167;28;20214;-70
2021/03/29 06:41:41;;;;;;;14.00;8.80;;;8.40;99.90;;;;;;5056111;28;20757;-69
2021/03/29 06:44:08;;;;;;;15.87;9.17;;;8.40;99.90;;;;;;5057555;28;20232;-72
2021/03/29 06:46:36;;;;;;;12.23;7.93;;;8.50;99.90;;;;;;5056947;28;20199;-69
2021/03/29 06:49:03;;;;;;;16.37;8.93;;;8.50;99.90;;;;;;5061415;28;20206;-74
2021/03/29 06:51:31;;;;;;;15.53;9.00;;;8.60;99.90;;;;;;5054525;28;20205;-76
2021/03/29 06:54:01;;;;;;;14.90;8.33;;;8.60;99.90;;;;;;5060738;28;20347;-73
2021/03/29 06:56:51;;;;;;;19.33;8.77;;;8.60;99.90;;;;;;5060009;28;20207;-76
2021/03/29 06:59:22;;;;;;;15.07;9.17;;;8.70;99.90;;;;;;5061554;28;20221;-77
2021/03/29 07:01:50;;;;;;;13.77;8.67;;;8.60;99.90;;;;;;5058106;28;20232;-76
2021/03/29 07:04:20;;;;;;;13.90;8.00;;;8.70;99.90;;;;;;5061315;28;20230;-76
2021/03/29 07:06:48;;;;;;;12.20;7.77;;;8.70;99.90;;;;;;5061166;28;20206;-75
2021/03/29 07:09:15;;;;;;;14.97;8.10;;;8.70;99.90;;;;;;5065196;28;20269;-80
2021/03/29 07:11:44;;;;;;;17.50;8.50;;;8.70;99.90;;;;;;5061662;28;20225;-77
2021/03/29 07:14:11;;;;;;;15.70;8.37;;;8.80;99.90;;;;;;5059586;28;20229;-77
2021/03/29 07:16:38;;;;;;;12.33;7.80;;;8.80;99.90;;;;;;5054248;28;20241;-72
2021/03/29 07:19:09;;;;;;;15.00;8.77;;;8.80;99.90;;;;;;5061153;28;20206;-78
2021/03/29 07:21:37;;;;;;;14.83;8.30;;;8.80;99.90;;;;;;5055391;28;20210;-72
2021/03/29 07:24:05;;;;;;;14.03;8.83;;;8.80;99.90;;;;;;5060773;28;20720;-71
2021/03/29 07:26:36;;;;;;;13.97;8.73;;;8.80;99.90;;;;;;5060456;28;20213;-70
2021/03/29 07:29:23;;;;;;;14.00;8.67;;;8.80;99.90;;;;;;5054172;28;20239;-71
2021/03/29 07:31:51;;;;;;;12.27;8.07;;;8.80;99.90;;;;;;5054353;28;20198;-74
2021/03/29 07:34:39;;;;;;;14.77;7.53;;;8.90;99.90;;;;;;5061729;28;20206;-72
2021/03/29 07:37:26;;;;;;;11.03;7.43;;;8.90;99.90;;;;;;5054439;28;20291;-78
2021/03/29 07:39:52;;;;;;;17.73;8.43;;;9.00;99.90;;;;;;5053770;28;20678;-72
2021/03/29 07:42:39;;;;;;;12.67;7.37;;;9.10;99.90;;;;;;5051147;28;20212;-72
2021/03/29 07:45:12;;;;;;;14.37;7.63;;;9.20;99.90;;;;;;5057696;28;20574;-75
2021/03/29 07:47:43;;;;;;;12.03;7.03;;;9.30;99.90;;;;;;5058371;28;20201;-74
2021/03/29 07:50:16;;;;;;;13.87;8.27;;;9.50;99.90;;;;;;5059470;28;20220;-73
2021/03/29 07:52:46;;;;;;;12.13;6.90;;;9.60;99.90;;;;;;5051581;28;20213;-74
2021/03/29 07:55:22;;;;;;;10.87;7.40;;;9.70;99.90;;;;;;5055612;28;20666;-73
2021/03/29 07:58:02;;;;;;;12.63;7.33;;;9.90;99.90;;;;;;5057040;28;20300;-74
2021/03/29 08:00:49;;;;;;;14.13;8.40;;;10.00;99.90;;;;;;5062439;28;20261;-73
2021/03/29 08:03:38;;;;;;;11.70;6.83;;;10.00;99.90;;;;;;5057620;28;20198;-74
2021/03/29 08:06:07;;;;;;;14.27;7.13;;;10.10;99.90;;;;;;5050810;28;20309;-73
2021/03/29 08:08:43;;;;;;;12.50;7.20;;;10.20;99.90;;;;;;5053259;28;20326;-73
2021/03/29 08:11:12;;;;;;;11.87;6.77;;;10.30;99.90;;;;;;5056180;28;20637;-72
2021/03/29 08:13:42;;;;;;;10.50;6.90;;;10.30;99.90;;;;;;5051938;28;20309;-75
2021/03/29 08:16:11;;;;;;;9.83;6.07;;;10.40;99.90;;;;;;5061047;28;20633;-74
2021/03/29 08:19:09;;;;;;;10.93;6.33;;;10.60;99.90;;;;;;5051707;28;20209;-73
2021/03/29 08:21:52;;;;;;;10.50;5.80;;;10.80;99.90;;;;;;5055711;28;20288;-73
2021/03/29 08:24:48;;;;;;;8.73;5.80;;;11.00;99.90;;;;;;5057070;28;20678;-74
2021/03/29 08:27:30;;;;;;;8.77;5.07;;;11.10;99.90;;;;;;5055264;28;20267;-73
2021/03/29 08:30:10;;;;;;;9.90;5.33;;;11.10;99.90;;;;;;5056328;28;20237;-73
2021/03/29 08:32:37;;;;;;;11.97;6.03;;;11.20;99.90;;;;;;5053895;28;20198;-76
2021/03/29 08:35:05;;;;;;;9.43;5.33;;;11.20;99.90;;;;;;5054198;28;20205;-75
2021/03/29 08:37:38;;;;;;;10.93;5.87;;;11.30;99.90;;;;;;5053613;28;20289;-74
2021/03/29 08:40:11;;;;;;;9.40;5.30;;;11.50;99.90;;;;;;5054202;28;20635;-74
2021/03/29 08:42:39;;;;;;;7.57;5.33;;;11.60;99.90;;;;;;5056716;28;20252;-74
2021/03/29 08:45:08;;;;;;;10.90;6.10;;;11.80;99.90;;;;;;5052612;28;20225;-74
2021/03/29 08:47:38;;;;;;;8.10;5.03;;;12.00;99.90;;;;;;5051698;28;20743;-73
2021/03/29 08:50:07;;;;;;;10.37;5.03;;;12.10;99.90;;;;;;5052819;28;20207;-74
2021/03/29 08:52:46;;;;;;;9.77;5.67;;;12.10;99.90;;;;;;5048563;28;20218;-76
2021/03/29 08:55:19;;;;;;;9.67;6.10;;;12.30;99.90;;;;;;5048816;28;20236;-73
2021/03/29 08:57:47;;;;;;;11.40;5.30;;;12.40;99.90;;;;;;5050841;28;20553;-72
2021/03/29 09:00:16;;;;;;;8.77;5.03;;;12.70;99.90;;;;;;5049461;28;20304;-72
2021/03/29 09:02:42;;;;;;;10.53;5.03;;;12.80;99.90;;;;;;5054155;28;20292;-72
2021/03/29 09:05:11;;;;;;;8.67;4.80;;;12.90;99.90;;;;;;5051162;28;20217;-72
2021/03/29 09:07:40;;;;;;;6.37;4.63;;;13.10;99.90;;;;;;5055866;28;20225;-72
2021/03/29 09:10:23;;;;;;;7.90;4.43;;;13.20;99.90;;;;;;5053518;28;20233;-73
2021/03/29 09:12:57;;;;;;;5.73;4.50;;;13.30;99.90;;;;;;5061912;28;20250;-73
2021/03/29 09:15:25;;;;;;;9.77;4.80;;;13.50;99.90;;;;;;5054462;28;20308;-71
2021/03/29 09:17:55;;;;;;;9.57;5.00;;;13.50;99.90;;;;;;5056387;28;20236;-73
2021/03/29 09:20:23;;;;;;;7.53;5.33;;;13.50;99.90;;;;;;5050987;28;20286;-72
2021/03/29 09:22:49;;;;;;;8.47;4.70;;;13.60;99.90;;;;;;5052729;28;20292;-72
2021/03/29 09:25:25;;;;;;;10.40;4.70;;;13.60;99.90;;;;;;5058295;28;20663;-72
2021/03/29 09:28:32;;;;;;;7.83;5.00;;;13.80;99.90;;;;;;5054154;28;20550;-72
2021/03/29 09:31:02;;;;;;;8.60;5.23;;;14.10;99.90;;;;;;5050900;28;20213;-73
2021/03/29 09:33:29;;;;;;;7.73;4.60;;;14.30;99.90;;;;;;5051961;28;20236;-71
2021/03/29 09:35:57;;;;;;;7.27;4.70;;;14.60;99.90;;;;;;5048483;28;20293;-74
2021/03/29 09:38:42;;;;;;;9.20;4.80;;;14.60;99.30;;;;;;5044133;28;20289;-73
2021/03/29 09:41:15;;;;;;;9.13;4.93;;;14.50;99.00;;;;;;5042397;28;20695;-72
2021/03/29 09:43:43;;;;;;;8.63;5.07;;;14.40;99.20;;;;;;5040778;28;20293;-73
2021/03/29 09:46:09;;;;;;;9.57;4.90;;;14.30;99.40;;;;;;5048269;28;20230;-72
2021/03/29 09:48:35;;;;;;;8.47;4.57;;;14.10;99.70;;;;;;5042986;28;20201;-72
2021/03/29 09:51:02;;;;;;;8.23;5.10;;;14.10;99.90;;;;;;5041030;28;20238;-73
2021/03/29 09:53:33;;;;;;;9.90;4.97;;;14.10;99.90;;;;;;5046881;28;20256;-72
2021/03/29 09:56:04;;;;;;;8.17;4.57;;;14.10;99.90;;;;;;5045624;28;20214;-71
2021/03/29 09:58:33;;;;;;;10.13;5.03;;;14.10;99.90;;;;;;5035600;28;20217;-72
2021/03/29 10:01:03;;;;;;;9.70;5.17;;;14.20;99.90;;;;;;5048346;28;20218;-72
2021/03/29 10:03:30;;;;;;;7.73;4.43;;;14.30;99.90;;;;;;5048013;28;20239;-72
2021/03/29 10:05:57;;;;;;;8.03;5.23;;;14.30;99.90;;;;;;5047708;28;20260;-72
2021/03/29 10:08:28;;;;;;;11.83;4.40;;;14.30;99.90;;;;;;5053735;28;20259;-72
2021/03/29 10:11:06;;;;;;;9.83;5.10;;;14.20;99.90;;;;;;5054223;28;20233;-72
2021/03/29 10:13:38;;;;;;;7.23;4.87;;;14.00;99.90;;;;;;5048158;28;20651;-73
2021/03/29 10:16:22;;;;;;;9.93;5.10;;;13.90;99.90;;;;;;5054331;28;20232;-73
2021/03/29 10:19:01;;;;;;;8.07;4.87;;;13.80;99.90;;;;;;5054543;28;20284;-74
2021/03/29 10:21:28;;;;;;;8.27;4.97;;;13.70;99.90;;;;;;5053218;28;20201;-73
2021/03/29 10:24:10;;;;;;;8.63;4.60;;;13.60;99.90;;;;;;5053234;28;20218;-74
2021/03/29 10:26:37;;;;;;;7.20;4.67;;;13.60;99.90;;;;;;5057358;28;20225;-73
2021/03/29 10:29:06;;;;;;;8.70;4.90;;;13.60;99.90;;;;;;5056697;28;20220;-71
2021/03/29 10:31:36;;;;;;;9.27;4.83;;;13.60;99.90;;;;;;5051206;28;20214;-72
2021/03/29 10:34:04;;;;;;;10.40;5.00;;;13.60;99.90;;;;;;5056945;28;20655;-74
2021/03/29 10:36:33;;;;;;;7.73;5.30;;;13.60;99.90;;;;;;5058304;28;20286;-72
2021/03/29 10:39:00;;;;;;;9.63;5.43;;;13.60;99.90;;;;;;5057196;28;20267;-74
2021/03/29 10:41:26;;;;;;;10.53;5.10;;;13.60;99.90;;;;;;5058879;28;20662;-72
2021/03/29 10:43:53;;;;;;;14.00;6.03;;;13.60;99.90;;;;;;5056163;28;20296;-71
2021/03/29 10:46:20;;;;;;;9.47;5.57;;;13.60;99.90;;;;;;5054556;28;20757;-72
2021/03/29 10:48:46;;;;;;;10.27;6.10;;;13.50;99.90;;;;;;5056508;28;20202;-72
2021/03/29 10:51:13;;;;;;;10.13;5.90;;;13.50;99.90;;;;;;5049940;28;20388;-72
2021/03/29 10:53:40;;;;;;;13.70;7.30;;;13.40;99.90;;;;;;5060690;28;20205;-72
2021/03/29 10:56:06;;;;;;;9.53;6.40;;;13.40;99.90;;;;;;5057416;28;20209;-73
2021/03/29 10:58:34;;;;;;;9.60;5.77;;;13.40;99.90;;;;;;5058006;28;20292;-73
2021/03/29 11:01:01;;;;;;;10.53;6.50;;;13.30;99.90;;;;;;5051563;28;20206;-70
2021/03/29 11:03:28;;;;;;;11.70;6.33;;;13.20;99.90;;;;;;5051039;28;20209;-73
2021/03/29 11:05:55;;;;;;;12.23;7.00;;;13.20;99.90;;;;;;5050184;28;20313;-72
2021/03/29 11:08:22;;;;;;;10.77;6.30;;;13.10;99.90;;;;;;5054651;28;20229;-73
2021/03/29 11:10:48;;;;;;;13.33;7.23;;;13.10;99.90;;;;;;5053728;28;20233;-73
2021/03/29 11:13:15;;;;;;;12.97;7.40;;;13.00;99.90;;;;;;5059540;28;20202;-75
2021/03/29 11:15:43;;;;;;;14.43;7.50;;;13.00;99.90;;;;;;5058194;28;20253;-77
2021/03/29 11:18:10;;;;;;;14.57;7.10;;;12.90;99.90;;;;;;5059500;28;20210;-71
2021/03/29 11:20:38;;;;;;;12.73;7.30;;;12.90;99.90;;;;;;5058517;28;20214;-71
2021/03/29 11:23:04;;;;;;;12.90;7.67;;;12.80;99.90;;;;;;5058031;28;20296;-73
2021/03/29 11:25:31;;;;;;;10.27;7.23;;;12.80;99.90;;;;;;5057978;28;20764;-72
2021/03/29 11:27:58;;;;;;;12.17;7.80;;;12.80;99.90;;;;;;5044494;28;20245;-73
2021/03/29 11:30:26;;;;;;;14.47;7.93;;;12.70;99.90;;;;;;5054374;28;20249;-78
2021/03/29 11:32:53;;;;;;;11.20;6.97;;;12.70;99.90;;;;;;5053469;28;20212;-72
2021/03/29 11:35:19;;;;;;;15.83;8.67;;;12.70;99.90;;;;;;5057597;28;20289;-71
2021/03/29 11:37:46;;;;;;;12.40;8.00;;;12.70;99.90;;;;;;5058281;28;20210;-74
2021/03/29 11:40:13;;;;;;;15.67;8.27;;;12.70;99.90;;;;;;5061375;28;20661;-71
2021/03/29 11:42:40;;;;;;;13.90;8.40;;;12.70;99.90;;;;;;5055484;28;20206;-72
2021/03/29 11:45:09;;;;;;;15.30;8.87;;;12.80;99.90;;;;;;5053564;28;20235;-71
2021/03/29 11:47:35;;;;;;;20.03;10.00;;;12.80;99.90;;;;;;5057398;28;20214;-70
2021/03/29 11:50:03;;;;;;;13.70;8.43;;;12.80;99.90;;;;;;5052702;28;20276;-69
2021/03/29 11:52:29;;;;;;;15.93;9.77;;;12.90;99.90;;;;;;5054161;28;20670;-71
2021/03/29 11:54:56;;;;;;;16.47;9.33;;;12.80;99.90;;;;;;5054801;28;20209;-69
2021/03/29 11:57:22;;;;;;;14.27;8.73;;;12.90;99.90;;;;;;5054286;28;20221;-69
2021/03/29 11:59:51;;;;;;;15.37;9.03;;;12.90;99.90;;;;;;5056996;28;20214;-73
2021/03/29 12:02:21;;;;;;;15.87;9.20;;;13.00;99.90;;;;;;5051969;28;20209;-73
2021/03/29 12:05:00;;;;;;;15.20;9.53;;;12.90;99.90;;;;;;5052787;28;20241;-73
2021/03/29 12:07:33;;;;;;;13.93;9.57;;;12.90;99.90;;;;;;5050022;28;20319;-72
2021/03/29 12:12:47;;;;;;;21.17;10.30;;;13.00;99.90;;;;;;5046109;28;20640;-73
2021/03/29 12:15:15;;;;;;;15.13;10.10;;;13.00;99.90;;;;;;5055449;28;20234;-74
2021/03/29 12:17:45;;;;;;;18.23;10.13;;;13.10;99.90;;;;;;5054485;28;20607;-75
2021/03/29 12:20:14;;;;;;;16.53;10.73;;;13.10;99.90;;;;;;5053430;28;20566;-72
2021/03/29 12:22:47;;;;;;;15.73;10.40;;;13.10;99.90;;;;;;5057247;28;20672;-75
2021/03/29 12:25:18;;;;;;;18.00;10.97;;;13.10;99.90;;;;;;5053297;28;20218;-74
2021/03/29 12:27:45;;;;;;;15.10;10.23;;;13.10;99.90;;;;;;5055133;28;20630;-75
2021/03/29 12:30:17;;;;;;;18.47;11.33;;;13.10;99.90;;;;;;5053318;28;20217;-74
2021/03/29 12:32:44;;;;;;;18.83;10.47;;;13.10;99.90;;;;;;5055105;28;20210;-71
2021/03/29 12:35:16;;;;;;;17.87;11.40;;;13.20;99.90;;;;;;5060855;28;20229;-74
2021/03/29 12:37:44;;;;;;;16.30;10.93;;;13.20;99.90;;;;;;5055049;28;20198;-76
2021/03/29 12:40:14;;;;;;;14.63;10.27;;;13.30;99.90;;;;;;5056062;28;20259;-76
2021/03/29 12:42:50;;;;;;;19.17;11.17;;;13.40;99.90;;;;;;5068887;28;20207;-74
2021/03/29 12:45:22;;;;;;;21.40;11.57;;;13.50;99.90;;;;;;5055514;28;20209;-75
2021/03/29 12:47:49;;;;;;;16.17;10.60;;;13.40;99.90;;;;;;5061561;28;20206;-74
2021/03/29 12:50:17;;;;;;;18.37;11.10;;;13.50;99.90;;;;;;5059988;28;20255;-74
2021/03/29 12:52:46;;;;;;;20.20;12.07;;;13.50;99.90;;;;;;5060786;28;20213;-74
2021/03/29 12:55:16;;;;;;;19.23;11.37;;;13.50;99.90;;;;;;5056570;28;20206;-75
2021/03/29 12:57:44;;;;;;;19.20;11.40;;;13.60;99.90;;;;;;5049743;28;20206;-73
2021/03/29 13:00:13;;;;;;;16.63;10.37;;;13.50;99.90;;;;;;5050573;28;20214;-74